Time;durP1;ratioP1;P1;durP2;ratioP2;P2;SDS_P1;SDS_P2;PMS_P1;PMS_P2;Temp;Humidity;BMP_temperature;BMP_pressure;BME280_temperature;BME280_humidity;BME280_pressure;Samples;Min_cycle;Max_cycle;Signal;HPM_P1;HPM_P2
2022/07/29 00:00:53;;;;;;;37.27;3.40;;;;;;;25.52;50.89;99590.16;7309784;19;129512;-42
2022/07/29 00:03:18;;;;;;;9.63;1.50;;;;;;;25.54;50.86;99592.63;7311023;19;129174;-34
2022/07/29 00:05:44;;;;;;;39.27;3.63;;;;;;;25.55;50.86;99592.44;7310424;19;128967;-39
2022/07/29 00:08:09;;;;;;;50.27;4.27;;;;;;;25.56;51.49;99598.53;7308768;19;129467;-38
2022/07/29 00:10:35;;;;;;;24.20;2.23;;;;;;;25.55;50.67;99604.81;7309889;19;130697;-36
2022/07/29 00:13:01;;;;;;;32.30;2.87;;;;;;;25.52;50.92;99600.69;7308622;19;130167;-37
2022/07/29 00:15:26;;;;;;;20.83;2.00;;;;;;;25.54;51.21;99601.34;7311201;19;129226;-37
2022/07/29 00:17:51;;;;;;;36.40;3.27;;;;;;;25.54;51.08;99603.97;7308431;19;129715;-37
2022/07/29 00:20:17;;;;;;;29.63;2.80;;;;;;;25.54;50.86;99603.97;7314974;19;130062;-38
2022/07/29 00:22:42;;;;;;;32.07;2.93;;;;;;;25.55;50.83;99594.28;7317180;19;129219;-38
2022/07/29 00:25:08;;;;;;;22.40;2.17;;;;;;;25.54;50.94;99592.63;7317297;19;129074;-45
2022/07/29 00:27:34;;;;;;;16.37;1.70;;;;;;;25.53;51.90;99591.81;7315690;19;129308;-41
2022/07/29 00:30:00;;;;;;;24.50;2.10;;;;;;;25.54;51.24;99582.91;7315818;19;130301;-38
2022/07/29 00:32:25;;;;;;;22.07;2.03;;;;;;;25.53;50.38;99575.19;7316115;19;129845;-39
2022/07/29 00:37:34;;;;;;;22.73;2.20;;;;;;;25.54;50.79;99572.38;7315864;19;129254;-42
2022/07/29 00:40:00;;;;;;;27.03;2.40;;;;;;;25.54;51.01;99572.38;7314866;19;128991;-37
2022/07/29 00:42:25;;;;;;;27.00;2.77;;;;;;;25.54;51.24;99566.28;7315416;19;130933;-36
2022/07/29 00:44:51;;;;;;;43.40;4.00;;;;;;;25.53;50.87;99565.50;7315647;19;131398;-41
2022/07/29 00:47:16;;;;;;;26.63;2.33;;;;;;;25.55;51.71;99567.94;7315505;19;129407;-37
2022/07/29 00:49:41;;;;;;;42.27;3.73;;;;;;;25.56;51.49;99569.59;7313934;19;128951;-38
2022/07/29 00:52:09;;;;;;;20.73;1.93;;;;;;;25.54;51.88;99564.50;7315897;19;129588;-38
2022/07/29 00:54:35;;;;;;;21.95;2.15;;;;;;;25.54;51.67;99561.03;7316637;19;128995;-35
2022/07/29 00:57:00;;;;;;;35.63;3.43;;;;;;;25.54;50.02;99555.75;7315723;19;128935;-37
2022/07/29 00:59:27;;;;;;;22.40;2.00;;;;;;;25.45;51.71;99540.97;7314308;19;129151;-39
2022/07/29 01:01:54;;;;;;;22.35;2.17;;;;;;;25.52;50.61;99548.03;7314800;19;130246;-35
2022/07/29 01:04:20;;;;;;;45.55;3.83;;;;;;;25.46;51.00;99532.91;7315887;19;129102;-43
2022/07/29 01:06:48;;;;;;;22.00;2.17;;;;;;;25.54;51.63;99540.78;7316183;19;129196;-44
2022/07/29 01:09:14;;;;;;;34.70;3.05;;;;;;;25.54;51.83;99542.59;7313066;19;130403;-40
2022/07/29 01:11:40;;;;;;;26.70;2.60;;;;;;;25.49;51.54;99531.75;7314841;19;129185;-38
2022/07/29 01:14:07;;;;;;;28.38;2.40;;;;;;;25.55;51.78;99541.63;7313096;19;128945;-38
2022/07/29 01:16:35;;;;;;;;;;;;;;;25.62;53.67;99534.69;7316260;19;129136;-39
2022/07/29 01:19:10;;;;;;;44.65;3.83;;;;;;;25.56;52.71;99532.72;7312016;19;129691;-37
2022/07/29 01:21:51;;;;;;;27.00;2.60;;;;;;;25.54;53.31;99524.16;7315186;19;132159;-36
2022/07/29 01:25:00;;;;;;;26.40;2.33;;;;;;;25.58;53.34;99517.59;7315027;19;129693;-36
2022/07/29 01:27:48;;;;;;;27.07;2.53;;;;;;;25.57;53.00;99518.56;7314087;19;129333;-36
2022/07/29 01:30:13;;;;;;;29.30;2.53;;;;;;;25.54;50.71;99524.16;7312789;19;130080;-36
2022/07/29 01:32:40;;;;;;;23.77;2.23;;;;;;;25.44;51.19;99503.28;7314549;19;130337;-37
2022/07/29 01:35:14;;;;;;;30.35;3.08;;;;;;;25.55;52.76;99517.94;7313721;19;129399;-37
2022/07/29 01:37:48;;;;;;;23.90;2.33;;;;;;;25.54;52.67;99513.63;7313402;19;130219;-33
2022/07/29 01:40:24;;;;;;;26.92;2.67;;;;;;;25.55;53.03;99512.66;7313208;19;130079;-37
2022/07/29 01:42:52;;;;;;;13.68;1.52;;;;;;;25.54;52.84;99513.63;7312588;19;129787;-45
2022/07/29 01:45:33;;;;;;;28.58;2.60;;;;;;;25.52;52.77;99515.59;7314240;19;129766;-41
2022/07/29 01:48:04;;;;;;;35.30;3.28;;;;;;;25.54;52.68;99511.00;7313587;19;129031;-42
2022/07/29 01:50:44;;;;;;;22.75;2.33;;;;;;;25.54;53.11;99514.47;7313491;19;129084;-38
2022/07/29 01:53:12;;;;;;;32.33;2.85;;;;;;;25.52;51.86;99516.44;7313652;19;129674;-38
2022/07/29 01:55:43;;;;;;;10.10;1.40;;;;;;;25.54;52.74;99516.28;7314715;19;129788;-37
2022/07/29 01:58:11;;;;;;;49.80;4.40;;;;;;;25.54;51.34;99513.63;7311523;19;130196;-41
2022/07/29 02:00:38;;;;;;;22.88;2.30;;;;;;;25.52;50.98;99510.34;7312587;19;129574;-41
2022/07/29 02:03:10;;;;;;;31.08;2.78;;;;;;;25.52;52.20;99520.88;7313285;19;129788;-40
2022/07/29 02:05:38;;;;;;;20.60;1.95;;;;;;;25.54;51.32;99508.38;7314772;19;129179;-37
2022/07/29 02:08:06;;;;;;;28.77;3.03;;;;;;;25.54;51.85;99513.63;7313057;19;130292;-36
2022/07/29 02:10:33;;;;;;;20.15;1.80;;;;;;;25.54;52.00;99513.63;7313227;19;129385;-39
2022/07/29 02:12:59;;;;;;;28.42;2.78;;;;;;;25.53;51.66;99518.09;7313470;19;130439;-36
2022/07/29 02:15:28;;;;;;;34.17;2.95;;;;;;;25.52;51.92;99512.97;7313697;19;129304;-37
2022/07/29 02:18:01;;;;;;;32.53;2.88;;;;;;;25.52;52.74;99510.34;7312401;19;129580;-37
2022/07/29 02:20:28;;;;;;;21.42;2.00;;;;;;;25.54;51.75;99513.63;7313330;19;130792;-39
2022/07/29 02:22:54;;;;;;;;;;;;;;;25.61;53.25;99504.09;7315034;19;129597;-39
2022/07/29 02:25:22;;;;;;;54.15;4.57;;;;;;;25.55;51.26;99510.84;7315206;19;130106;-36
2022/07/29 02:27:50;;;;;;;25.35;2.22;;;;;;;25.54;51.82;99509.19;7313516;19;129309;-38
2022/07/29 02:30:16;;;;;;;33.35;3.25;;;;;;;25.54;50.86;99503.09;7312137;19;129026;-39
2022/07/29 02:32:43;;;;;;;25.60;2.70;;;;;;;25.45;50.60;99488.31;7312314;19;131125;-36
2022/07/29 02:35:09;;;;;;;23.85;2.17;;;;;;;25.49;50.48;99489.63;7314029;19;128985;-40
2022/07/29 02:37:37;;;;;;;22.80;2.50;;;;;;;25.54;52.54;99495.19;7312525;19;129840;-40
2022/07/29 02:40:04;;;;;;;42.83;3.97;;;;;;;25.52;50.60;99505.06;7310940;19;130458;-39
2022/07/29 02:42:31;;;;;;;28.13;2.63;;;;;;;25.51;51.67;99503.44;7308638;19;131674;-37
2022/07/29 02:44:56;;;;;;;31.48;2.80;;;;;;;25.53;51.38;99504.09;7313307;19;129466;-39
2022/07/29 02:47:27;;;;;;;26.33;2.57;;;;;;;25.44;51.62;99491.94;7310375;19;129163;-35
2022/07/29 02:50:21;;;;;;;32.13;2.78;;;;;;;25.55;53.26;99497.66;7311126;19;130007;-39
2022/07/29 02:52:57;;;;;;;24.08;2.40;;;;;;;25.55;53.28;99507.41;7311879;19;130128;-35
2022/07/29 02:55:29;;;;;;;18.25;2.35;;;;;;;25.53;53.14;99494.41;7313450;19;129060;-36
2022/07/29 02:58:00;;;;;;;33.78;2.97;;;;;;;25.53;52.66;99501.47;7311631;19;129170;-35
2022/07/29 03:00:29;;;;;;;49.35;4.15;;;;;;;25.54;52.43;99492.56;7310924;19;130030;-42
2022/07/29 03:02:58;;;;;;;15.48;2.05;;;;;;;25.45;52.03;99486.50;7312927;19;129229;-35
2022/07/29 03:05:24;;;;;;;25.17;2.38;;;;;;;25.46;51.10;99488.16;7314285;19;129007;-41
2022/07/29 03:07:56;;;;;;;28.15;2.58;;;;;;;25.52;53.30;99498.00;7309420;19;131002;-36
2022/07/29 03:10:23;;;;;;;25.85;2.40;;;;;;;25.54;52.02;99497.84;7310809;19;129080;-41
2022/07/29 03:12:48;;;;;;;32.10;2.83;;;;;;;25.52;50.66;99494.53;7309129;19;129759;-38
2022/07/29 03:15:14;;;;;;;28.97;2.77;;;;;;;25.44;51.12;99486.66;7311159;19;128886;-39
2022/07/29 03:17:40;;;;;;;29.10;2.67;;;;;;;25.54;52.06;99500.47;7309839;19;129127;-41
2022/07/29 03:20:08;;;;;;;32.50;2.78;;;;;;;25.54;51.94;99497.84;7309631;19;130287;-39
2022/07/29 03:22:46;;;;;;;15.65;1.75;;;;;;;25.53;52.37;99501.47;7311195;19;129769;-37
2022/07/29 03:25:19;;;;;;;23.17;2.22;;;;;;;25.51;51.74;99500.81;7308471;19;129259;-41
2022/07/29 03:27:45;;;;;;;19.90;2.10;;;;;;;25.52;52.23;99494.53;7309910;19;128934;-38
2022/07/29 03:30:12;;;;;;;32.45;2.92;;;;;;;25.53;52.04;99491.78;7310566;19;130448;-34
2022/07/29 03:32:38;;;;;;;21.08;1.95;;;;;;;25.51;51.85;99492.91;7309383;19;132359;-40
2022/07/29 03:35:04;;;;;;;38.67;3.47;;;;;;;25.52;52.51;99491.91;7311830;19;130382;-37
2022/07/29 03:37:30;;;;;;;33.08;2.70;;;;;;;25.43;51.50;99470.06;7309705;19;130070;-41
2022/07/29 03:39:58;;;;;;;45.03;3.70;;;;;;;25.51;52.24;99488.47;7306095;19;129573;-42
2022/07/29 03:42:27;;;;;;;29.25;2.88;;;;;;;25.54;53.21;99488.13;7310463;19;130319;-39
2022/07/29 03:44:55;;;;;;;29.88;2.90;;;;;;;25.53;51.65;99488.31;7310019;19;129494;-36
2022/07/29 03:47:25;;;;;;;38.17;3.35;;;;;;;25.53;52.20;99486.50;7308107;19;129665;-40
2022/07/29 03:49:53;;;;;;;37.30;3.28;;;;;;;25.52;51.63;99478.75;7308493;19;129447;-36
2022/07/29 03:52:20;;;;;;;25.98;2.95;;;;;;;25.54;51.34;99482.88;7310460;19;130226;-37
2022/07/29 03:54:46;;;;;;;33.45;3.47;;;;;;;25.53;52.38;99472.50;7313617;19;129014;-40
2022/07/29 03:57:12;;;;;;;30.07;2.67;;;;;;;25.52;52.00;99469.06;7315742;19;129127;-44
2022/07/29 03:59:39;;;;;;;28.05;2.75;;;;;;;25.54;51.87;99482.03;7316961;19;129878;-40
2022/07/29 04:02:08;;;;;;;21.77;2.13;;;;;;;25.54;51.94;99476.78;7317149;19;131894;-36
2022/07/29 04:04:34;;;;;;;17.20;1.90;;;;;;;25.52;51.99;99478.75;7318355;19;130325;-37
2022/07/29 04:07:00;;;;;;;24.42;2.35;;;;;;;25.52;51.39;99478.75;7316417;19;129560;-36
2022/07/29 04:09:25;;;;;;;25.77;2.27;;;;;;;25.52;50.87;99484.00;7315734;19;129680;-38
2022/07/29 04:11:51;;;;;;;37.13;3.20;;;;;;;25.54;51.59;99487.31;7315097;19;131810;-36
2022/07/29 04:14:16;;;;;;;36.63;3.33;;;;;;;25.45;50.68;99475.16;7312654;19;129181;-40
2022/07/29 04:16:41;;;;;;;52.60;4.30;;;;;;;25.55;52.59;99483.72;7316232;19;130154;-34
2022/07/29 04:19:07;;;;;;;21.63;2.10;;;;;;;25.54;51.23;99492.56;7312804;19;129075;-37
2022/07/29 04:21:38;;;;;;;22.27;1.93;;;;;;;25.46;52.94;99471.53;7317181;19;129596;-41
2022/07/29 04:24:03;;;;;;;31.17;2.83;;;;;;;25.52;51.18;99495.38;7317281;19;130444;-39
2022/07/29 04:26:29;;;;;;;16.97;1.73;;;;;;;25.55;51.62;99499.50;7317508;19;129133;-41
2022/07/29 04:28:54;;;;;;;49.23;4.23;;;;;;;25.53;51.63;99491.78;7311423;19;129912;-36
2022/07/29 04:31:19;;;;;;;48.27;4.47;;;;;;;25.51;50.07;99487.66;7313531;19;130247;-41
2022/07/29 04:33:45;;;;;;;25.30;2.73;;;;;;;25.43;51.40;99485.88;7314475;19;129172;-40
2022/07/29 04:36:10;;;;;;;23.53;2.10;;;;;;;25.48;51.58;99493.25;7314708;19;129642;-37
2022/07/29 04:38:37;;;;;;;26.90;2.60;;;;;;;25.46;50.84;99487.31;7312796;19;129529;-36
2022/07/29 04:41:02;;;;;;;33.30;3.10;;;;;;;25.46;49.90;99495.22;7315191;19;130099;-40
2022/07/29 04:43:27;;;;;;;28.63;3.07;;;;;;;25.46;50.20;99488.16;7302565;19;131885;-38
2022/07/29 04:45:53;;;;;;;36.70;3.57;;;;;;;25.46;50.67;99487.31;7306621;19;129976;-37
2022/07/29 04:48:18;;;;;;;48.05;4.45;;;;;;;25.46;50.10;99500.50;7310383;19;130721;-39
2022/07/29 04:50:44;;;;;;;35.50;3.37;;;;;;;25.45;50.81;99498.84;7311835;19;129723;-40
2022/07/29 04:53:09;;;;;;;37.93;3.77;;;;;;;25.35;50.89;99477.94;7311757;19;130872;-42
2022/07/29 04:55:36;;;;;;;18.87;2.47;;;;;;;25.45;50.45;99490.97;7313099;19;129223;-38
2022/07/29 04:58:01;;;;;;;42.10;4.28;;;;;;;25.43;50.19;99491.13;7309775;19;129833;-36
2022/07/29 05:00:27;;;;;;;30.27;3.37;;;;;;;25.43;49.97;99495.56;7312616;19;129189;-35
2022/07/29 05:02:52;;;;;;;30.50;3.50;;;;;;;25.42;50.03;99483.41;7314614;19;129889;-38
2022/07/29 05:05:18;;;;;;;37.37;4.47;;;;;;;25.42;49.90;99484.19;7306968;19;129767;-41
2022/07/29 05:07:43;;;;;;;32.03;3.70;;;;;;;25.42;50.49;99484.19;7310121;19;131855;-38
2022/07/29 05:10:09;;;;;;;110.17;10.27;;;;;;;25.42;50.25;99484.19;7309991;19;129955;-35
2022/07/29 05:12:34;;;;;;;30.70;3.93;;;;;;;25.41;49.68;99481.75;7310033;19;129968;-37
2022/07/29 05:14:59;;;;;;;33.70;3.83;;;;;;;25.33;50.28;99473.81;7311393;19;129867;-35
2022/07/29 05:17:25;;;;;;;37.37;4.20;;;;;;;25.42;49.98;99473.66;7312953;19;130122;-37
2022/07/29 05:19:51;;;;;;;28.03;3.80;;;;;;;25.41;49.13;99481.75;7308746;19;129157;-39
2022/07/29 05:22:20;;;;;;;29.47;3.73;;;;;;;25.41;49.91;99479.94;7314296;19;128945;-42
2022/07/29 05:24:46;;;;;;;33.42;4.20;;;;;;;25.35;50.35;99477.16;7309632;19;129104;-38
2022/07/29 05:27:12;;;;;;;31.30;3.90;;;;;;;25.38;49.88;99484.72;7313684;19;129378;-36
2022/07/29 05:29:37;;;;;;;29.77;3.47;;;;;;;25.34;49.15;99485.97;7312562;19;130295;-37
2022/07/29 05:32:03;;;;;;;35.10;4.23;;;;;;;25.35;50.51;99487.69;7313536;19;129244;-41
2022/07/29 05:34:29;;;;;;;15.07;2.58;;;;;;;25.39;48.62;99491.59;7310917;19;128905;-37
2022/07/29 05:36:54;;;;;;;41.97;4.57;;;;;;;25.39;49.21;99494.22;7314165;19;129491;-38
2022/07/29 05:39:20;;;;;;;33.90;4.10;;;;;;;25.34;49.03;99488.63;7312301;19;130919;-39
2022/07/29 05:41:45;;;;;;;32.83;3.90;;;;;;;25.41;49.92;99492.28;7310536;19;129552;-41
2022/07/29 05:44:13;;;;;;;31.83;4.03;;;;;;;25.41;50.88;99487.00;7314681;19;129110;-41
2022/07/29 05:46:38;;;;;;;24.95;3.00;;;;;;;25.39;50.05;99496.88;7314370;19;130205;-39
2022/07/29 05:49:04;;;;;;;46.23;4.47;;;;;;;25.40;49.25;99495.91;7312154;19;129233;-39
2022/07/29 05:51:30;;;;;;;29.47;3.60;;;;;;;25.41;49.85;99494.91;7314363;19;129156;-41
2022/07/29 05:53:55;;;;;;;18.07;3.27;;;;;;;25.41;50.38;99495.72;7313442;19;129195;-40
2022/07/29 05:56:20;;;;;;;15.83;2.93;;;;;;;25.43;49.98;99490.28;7314019;19;129312;-36
2022/07/29 05:58:46;;;;;;;29.00;3.47;;;;;;;25.43;50.04;99495.56;7311635;19;129162;-39
2022/07/29 06:01:11;;;;;;;34.47;4.07;;;;;;;25.42;49.86;99496.56;7314570;19;129816;-38
2022/07/29 06:03:37;;;;;;;13.55;2.72;;;;;;;25.42;49.92;99492.09;7314403;19;129362;-36
2022/07/29 06:06:04;;;;;;;42.80;5.10;;;;;;;25.42;49.75;99491.28;7314428;19;130609;-41
2022/07/29 06:08:29;;;;;;;31.60;4.05;;;;;;;25.42;50.55;99493.94;7312246;19;130407;-37
2022/07/29 06:10:54;;;;;;;38.23;4.70;;;;;;;25.42;50.48;99488.66;7314013;19;129204;-38
2022/07/29 06:13:20;;;;;;;37.73;4.70;;;;;;;25.43;49.29;99491.13;7312851;19;129254;-40
2022/07/29 06:15:45;;;;;;;8.73;2.40;;;;;;;25.44;50.62;99491.94;7312185;19;129904;-37
2022/07/29 06:18:13;;;;;;;54.13;5.73;;;;;;;25.42;50.62;99499.19;7311069;19;129410;-39
2022/07/29 06:20:38;;;;;;;25.15;3.53;;;;;;;25.34;50.71;99481.56;7313826;19;130866;-43
2022/07/29 06:23:04;;;;;;;31.57;4.07;;;;;;;25.42;50.16;99505.25;7313226;19;129029;-37
2022/07/29 06:25:30;;;;;;;27.50;3.67;;;;;;;25.42;49.61;99501.81;7313725;19;130074;-38
2022/07/29 06:27:56;;;;;;;33.72;4.32;;;;;;;25.41;49.79;99494.91;7312726;19;130429;-34
2022/07/29 06:30:22;;;;;;;109.83;10.93;;;;;;;25.42;50.71;99493.94;7306236;19;129003;-40
2022/07/29 06:32:47;;;;;;;33.80;4.50;;;;;;;25.42;50.58;99493.94;7311584;19;130343;-36
2022/07/29 06:35:13;;;;;;;31.00;4.03;;;;;;;25.41;50.69;99494.91;7307607;19;129342;-41
2022/07/29 06:37:38;;;;;;;23.70;3.57;;;;;;;25.42;49.83;99496.56;7309513;19;130789;-42
2022/07/29 06:42:48;;;;;;;34.45;4.47;;;;;;;25.40;50.05;99490.63;7312288;19;130463;-35
2022/07/29 06:45:13;;;;;;;31.33;4.50;;;;;;;25.42;50.64;99505.25;7310849;19;130750;-40
2022/07/29 06:47:39;;;;;;;25.53;4.03;;;;;;;25.42;50.48;99497.38;7311637;19;131574;-37
2022/07/29 06:50:05;;;;;;;32.33;4.43;;;;;;;25.42;50.56;99499.19;7312761;19;128856;-34
2022/07/29 06:52:30;;;;;;;23.60;3.77;;;;;;;25.42;49.60;99497.38;7312486;19;128987;-36
2022/07/29 06:54:55;;;;;;;15.80;3.23;;;;;;;25.41;50.08;99502.78;7310560;19;129298;-40
2022/07/29 06:57:21;;;;;;;52.63;6.00;;;;;;;25.42;50.15;99504.47;7311092;19;130277;-39
2022/07/29 06:59:47;;;;;;;27.58;3.90;;;;;;;25.36;50.89;99500.66;7311861;19;128935;-38
2022/07/29 07:02:13;;;;;;;38.03;5.23;;;;;;;25.42;51.20;99509.72;7310726;19;129714;-39
2022/07/29 07:04:39;;;;;;;47.00;5.57;;;;;;;25.42;50.40;99515.00;7310296;19;131004;-38
2022/07/29 07:07:04;;;;;;;33.20;4.77;;;;;;;25.40;50.85;99514.31;7311640;19;131048;-37
2022/07/29 07:09:29;;;;;;;32.57;4.17;;;;;;;25.42;50.71;99515.00;7311678;19;129216;-37
2022/07/29 07:11:55;;;;;;;39.10;4.97;;;;;;;25.44;51.59;99510.34;7311816;19;129188;-37
2022/07/29 07:14:20;;;;;;;24.80;4.10;;;;;;;25.44;50.75;99513.00;7310795;19;129028;-40
2022/07/29 07:16:45;;;;;;;34.50;4.60;;;;;;;25.43;49.91;99511.34;7311863;19;131012;-40
2022/07/29 07:19:11;;;;;;;36.43;4.80;;;;;;;25.43;50.97;99508.72;7309457;19;129688;-38
2022/07/29 07:21:36;;;;;;;42.00;5.27;;;;;;;25.43;51.65;99514.00;7311534;19;128943;-42
2022/07/29 07:24:01;;;;;;;39.80;5.20;;;;;;;25.43;51.41;99506.09;7311228;19;129565;-36
2022/07/29 07:26:27;;;;;;;25.30;4.03;;;;;;;25.42;51.01;99501.81;7312203;19;130447;-38
2022/07/29 07:28:53;;;;;;;33.57;4.80;;;;;;;25.34;51.19;99496.50;7308206;19;129490;-38
2022/07/29 07:31:18;;;;;;;29.40;4.13;;;;;;;25.42;51.03;99502.63;7305434;19;131182;-38
2022/07/29 07:33:43;;;;;;;35.13;4.77;;;;;;;25.35;51.33;99493.75;7306279;19;129055;-38
2022/07/29 07:36:09;;;;;;;26.20;4.30;;;;;;;25.43;50.66;99501.66;7308679;19;129550;-36
2022/07/29 07:38:35;;;;;;;49.17;5.73;;;;;;;25.37;52.05;99494.41;7306243;19;129355;-42
2022/07/29 07:41:00;;;;;;;41.07;5.40;;;;;;;25.42;51.57;99497.38;7309755;19;129750;-36
2022/07/29 07:43:26;;;;;;;45.13;5.13;;;;;;;25.44;50.83;99499.81;7305135;19;129578;-41
2022/07/29 07:45:51;;;;;;;39.13;5.17;;;;;;;25.45;51.41;99498.84;7307069;19;129632;-44
2022/07/29 07:48:16;;;;;;;74.37;8.20;;;;;;;25.44;51.90;99497.19;7306566;19;129209;-36
2022/07/29 07:50:43;;;;;;;30.10;4.03;;;;;;;25.45;52.03;99494.38;7310637;19;128839;-38
2022/07/29 07:53:08;;;;;;;20.58;3.67;;;;;;;25.45;51.64;99493.59;7310009;19;129135;-42
2022/07/29 07:55:40;;;;;;;25.63;4.03;;;;;;;25.44;52.68;99491.94;7309189;19;130626;-37
2022/07/29 07:58:05;;;;;;;53.60;6.60;;;;;;;25.42;50.84;99494.72;7309482;19;129362;-40
2022/07/29 08:00:32;;;;;;;12.40;3.23;;;;;;;25.36;51.48;99478.78;7311249;19;129086;-36
2022/07/29 08:02:57;;;;;;;43.05;5.82;;;;;;;25.45;51.77;99493.59;7308964;19;130585;-37
2022/07/29 08:05:22;;;;;;;29.13;4.57;;;;;;;25.37;50.88;99486.50;7310122;19;129262;-39
2022/07/29 08:07:48;;;;;;;20.23;4.13;;;;;;;25.43;51.87;99487.66;7310092;19;129350;-39
2022/07/29 08:10:51;;;;;;;29.83;4.90;;;;;;;25.42;53.42;99484.19;7309630;19;131480;-35
2022/07/29 08:13:08;;;;;;;38.88;6.28;;;;;;;25.43;53.01;99482.41;7309169;19;130120;-40
2022/07/29 08:15:34;;;;;;;27.42;4.72;;;;;;;25.41;51.89;99484.38;7308274;19;130329;-36
2022/07/29 08:18:00;;;;;;;27.97;4.93;;;;;;;25.43;51.86;99479.78;7309348;19;128974;-40
2022/07/29 08:20:25;;;;;;;23.67;4.67;;;;;;;25.42;51.71;99478.94;7310215;19;129224;-37
2022/07/29 08:22:53;;;;;;;38.20;5.63;;;;;;;25.38;52.41;99467.13;7309629;19;131093;-39
2022/07/29 08:25:20;;;;;;;36.80;6.13;;;;;;;25.42;51.80;99475.50;7308738;19;129653;-38
2022/07/29 08:27:46;;;;;;;32.05;5.65;;;;;;;25.42;52.36;99467.59;7307468;19;129800;-42
2022/07/29 08:30:11;;;;;;;30.87;5.40;;;;;;;25.44;52.38;99470.88;7308850;19;128979;-38
2022/07/29 08:32:37;;;;;;;12.93;4.03;;;;;;;25.43;52.20;99469.25;7309556;19;129682;-38
2022/07/29 08:35:02;;;;;;;44.10;6.37;;;;;;;25.44;52.25;99465.59;7308618;19;130463;-36
2022/07/29 08:37:28;;;;;;;27.40;5.13;;;;;;;25.42;52.60;99464.97;7309063;19;129310;-41
2022/07/29 08:39:53;;;;;;;34.93;5.43;;;;;;;25.35;52.13;99456.09;7311703;19;129484;-37
2022/07/29 08:42:19;;;;;;;41.63;6.00;;;;;;;25.42;52.22;99465.78;7315489;19;130225;-37
2022/07/29 08:44:45;;;;;;;35.45;5.43;;;;;;;25.43;52.48;99467.44;7315839;19;130734;-40
2022/07/29 08:47:13;;;;;;;32.93;5.13;;;;;;;25.36;53.39;99455.09;7315174;19;131207;-39
2022/07/29 08:49:43;;;;;;;31.92;4.95;;;;;;;25.42;52.59;99464.97;7311978;19;130135;-39
2022/07/29 08:52:11;;;;;;;20.20;4.35;;;;;;;25.42;52.82;99467.59;7314722;19;130214;-46
2022/07/29 08:54:38;;;;;;;40.17;5.50;;;;;;;25.43;52.27;99471.88;7310866;19;129570;-36
2022/07/29 08:57:04;;;;;;;35.50;5.45;;;;;;;25.42;51.95;99460.50;7315302;19;129931;-37
2022/07/29 08:59:33;;;;;;;39.22;5.45;;;;;;;25.42;52.62;99455.25;7313936;19;129564;-39
2022/07/29 09:02:00;;;;;;;27.02;4.78;;;;;;;25.43;52.58;99463.97;7315528;19;130546;-34
2022/07/29 09:04:29;;;;;;;36.95;5.72;;;;;;;25.40;53.27;99462.47;7312148;19;130676;-41
2022/07/29 09:07:00;;;;;;;33.45;5.20;;;;;;;25.35;54.16;99451.63;7314920;19;130891;-36
2022/07/29 09:09:26;;;;;;;37.70;5.35;;;;;;;25.41;53.21;99458.88;7313431;19;128852;-41
2022/07/29 09:11:53;;;;;;;30.27;4.73;;;;;;;25.43;53.40;99448.19;7314646;19;129012;-34
2022/07/29 09:14:18;;;;;;;;;;;;;;;25.50;55.15;99446.53;7309932;19;129304;-41
2022/07/29 09:16:44;;;;;;;30.58;4.57;;;;;;;25.42;53.92;99443.91;7315537;19;129713;-35
2022/07/29 09:19:20;;;;;;;24.38;4.40;;;;;;;25.44;55.11;99441.91;7311528;19;129202;-41
2022/07/29 09:21:58;;;;;;;33.42;5.07;;;;;;;25.42;52.26;99430.75;7309038;19;130060;-40
2022/07/29 09:24:35;;;;;;;46.83;5.40;;;;;;;25.41;52.81;99435.19;7311758;19;130183;-37
2022/07/29 09:27:01;;;;;;;32.05;4.78;;;;;;;25.43;53.42;99427.13;7310603;19;129658;-40
2022/07/29 09:29:27;;;;;;;45.20;5.30;;;;;;;25.42;52.65;99431.56;7308061;19;129176;-38
2022/07/29 09:31:54;;;;;;;41.93;5.77;;;;;;;25.43;52.93;99424.50;7310886;19;130060;-38
2022/07/29 09:34:28;;;;;;;;;;;;;;;25.49;54.76;99431.69;7309558;19;129451;-40
2022/07/29 09:36:54;;;;;;;49.75;5.65;;;;;;;25.42;53.19;99433.38;7311788;19;129638;-38
2022/07/29 09:39:27;;;;;;;31.83;4.97;;;;;;;25.43;54.72;99432.38;7308982;19;131498;-36
2022/07/29 09:41:55;;;;;;;31.20;5.03;;;;;;;25.32;52.52;99419.56;7313065;19;129402;-45
2022/07/29 09:44:24;;;;;;;16.00;4.07;;;;;;;25.32;53.92;99414.28;7313923;19;129209;-40
2022/07/29 09:47:07;;;;;;;28.10;4.93;;;;;;;25.42;54.92;99433.38;7314344;19;129433;-37
2022/07/29 09:49:34;;;;;;;28.23;4.90;;;;;;;25.41;53.13;99429.09;7312243;19;129136;-36
2022/07/29 09:52:07;;;;;;;30.77;4.85;;;;;;;25.40;54.99;99432.72;7313392;19;129630;-40
2022/07/29 09:54:36;;;;;;;28.73;4.70;;;;;;;25.41;52.71;99429.09;7309975;19;129255;-38
2022/07/29 09:57:21;;;;;;;15.80;3.97;;;;;;;25.42;53.72;99436.03;7314489;19;128912;-33
2022/07/29 10:00:02;;;;;;;31.73;4.70;;;;;;;25.32;54.73;99424.81;7313038;19;128958;-37
2022/07/29 10:02:33;;;;;;;26.25;4.45;;;;;;;25.39;54.78;99434.53;7313502;19;131306;-41
2022/07/29 10:05:00;;;;;;;23.05;4.20;;;;;;;25.39;53.73;99431.91;7314132;19;130162;-37
2022/07/29 10:07:26;;;;;;;29.38;4.85;;;;;;;25.39;53.81;99421.38;7314626;19;129179;-36
2022/07/29 10:09:56;;;;;;;32.80;5.00;;;;;;;25.33;54.10;99416.75;7313573;19;129648;-39
2022/07/29 10:12:23;;;;;;;28.40;5.20;;;;;;;25.37;53.40;99428.59;7313229;19;129443;-39
2022/07/29 10:14:50;;;;;;;33.30;5.00;;;;;;;25.40;53.32;99427.47;7310778;19;129592;-39
2022/07/29 10:17:15;;;;;;;;;;;;;;;25.48;55.39;99430.06;7312989;19;129316;-36
2022/07/29 10:19:42;;;;;;;38.83;5.18;;;;;;;25.43;52.57;99421.88;7313668;19;129705;-37
2022/07/29 10:22:09;;;;;;;27.83;4.47;;;;;;;25.41;52.88;99429.09;7311943;19;130086;-36
2022/07/29 10:24:37;;;;;;;23.45;4.95;;;;;;;25.40;53.99;99427.47;7312922;19;131134;-39
2022/07/29 10:27:04;;;;;;;32.22;4.80;;;;;;;25.41;52.55;99423.84;7312673;19;129286;-41
2022/07/29 10:29:31;;;;;;;22.83;4.13;;;;;;;25.41;54.05;99423.84;7312941;19;129188;-39
2022/07/29 10:31:56;;;;;;;;;;;;;;;25.47;55.25;99420.50;7312973;19;129950;-38
2022/07/29 10:34:36;;;;;;;31.97;5.17;;;;;;;25.43;54.72;99413.97;7312951;19;129745;-38
2022/07/29 10:37:18;;;;;;;38.15;5.60;;;;;;;25.40;54.74;99417.75;7313097;19;129012;-37
2022/07/29 10:39:46;;;;;;;38.88;5.80;;;;;;;25.40;54.28;99411.66;7312525;19;129319;-39
2022/07/29 10:42:27;;;;;;;31.08;5.13;;;;;;;25.38;54.80;99411.00;7312957;19;130540;-38
2022/07/29 10:44:53;;;;;;;34.35;4.88;;;;;;;25.39;52.48;99410.00;7312872;19;129228;-41
2022/07/29 10:47:25;;;;;;;23.75;4.45;;;;;;;25.38;54.60;99409.22;7311347;19;128775;-38
2022/07/29 10:50:02;;;;;;;36.85;5.25;;;;;;;25.39;55.51;99410.00;7312507;19;129333;-36
2022/07/29 10:52:48;;;;;;;;;;;;;;;25.47;55.23;99408.19;7312957;19;130685;-38
2022/07/29 10:55:34;;;;;;;26.35;4.97;;;;;;;25.43;56.03;99406.91;7309827;19;129344;-41
2022/07/29 10:58:20;;;;;;;45.67;6.60;;;;;;;25.43;55.96;99408.69;7309322;19;128924;-41
2022/07/29 11:00:47;;;;;;;41.78;5.63;;;;;;;25.38;53.79;99398.69;7311777;19;129103;-41
2022/07/29 11:03:41;;;;;;;28.80;4.65;;;;;;;25.39;55.67;99405.56;7312157;19;130368;-37
2022/07/29 11:06:07;;;;;;;26.83;4.60;;;;;;;25.39;53.75;99397.69;7310771;19;130054;-39
2022/07/29 11:08:32;;;;;;;24.40;4.23;;;;;;;25.38;54.07;99398.69;7310747;19;128970;-39
2022/07/29 11:11:19;;;;;;;37.03;5.33;;;;;;;25.42;55.92;99399.16;7310896;19;130098;-40
2022/07/29 11:13:46;;;;;;;50.17;6.30;;;;;;;25.39;53.35;99399.47;7309899;19;130226;-40
2022/07/29 11:16:12;;;;;;;28.90;4.88;;;;;;;25.40;54.11;99398.50;7311320;19;131065;-37
2022/07/29 11:19:12;;;;;;;31.33;5.30;;;;;;;25.42;55.44;99392.06;7308041;19;131365;-43
2022/07/29 11:21:39;;;;;;;26.70;4.47;;;;;;;25.40;53.62;99385.34;7311004;19;128946;-38
2022/07/29 11:24:28;;;;;;;40.33;5.88;;;;;;;25.39;55.08;99389.78;7310156;19;129165;-35
2022/07/29 11:27:16;;;;;;;19.08;4.25;;;;;;;25.42;55.93;99391.28;7310858;19;130976;-39
2022/07/29 11:29:52;;;;;;;26.88;5.03;;;;;;;25.40;55.72;99395.88;7308669;19;128835;-41